Time;durP1;ratioP1;P1;durP2;ratioP2;P2;SDS_P1;SDS_P2;PMS_P1;PMS_P2;Temp;Humidity;BMP_temperature;BMP_pressure;BME280_temperature;BME280_humidity;BME280_pressure;Samples;Min_cycle;Max_cycle;Signal;HPM_P1;HPM_P2
2021/10/08 00:01:28;;;;;;;5.70;5.20;;;6.60;99.90;;;;;;4967949;28;20205;-70
2021/10/08 00:03:54;;;;;;;5.73;4.70;;;6.60;99.90;;;;;;4971714;28;20177;-69
2021/10/08 00:06:20;;;;;;;5.30;4.80;;;6.60;99.90;;;;;;4974217;28;20192;-67
2021/10/08 00:08:46;;;;;;;5.53;5.03;;;6.60;99.90;;;;;;4974188;28;20184;-69
2021/10/08 00:11:12;;;;;;;5.40;4.90;;;6.60;99.90;;;;;;4973496;28;20981;-68
2021/10/08 00:13:38;;;;;;;5.13;4.63;;;6.50;99.90;;;;;;4969503;28;20181;-69
2021/10/08 00:16:07;;;;;;;5.27;4.77;;;6.50;99.90;;;;;;4968619;28;20181;-68
2021/10/08 00:18:37;;;;;;;4.83;4.33;;;6.40;99.90;;;;;;4969372;28;20291;-69
2021/10/08 00:21:04;;;;;;;6.07;4.77;;;6.40;99.90;;;;;;4968401;28;20641;-70
2021/10/08 00:23:29;;;;;;;4.90;4.50;;;6.50;99.90;;;;;;4972809;28;20437;-66
2021/10/08 00:25:55;;;;;;;6.13;5.03;;;6.50;99.90;;;;;;4972501;28;20509;-68
2021/10/08 00:28:21;;;;;;;5.43;4.73;;;6.60;99.90;;;;;;4968326;28;20528;-67
2021/10/08 00:30:46;;;;;;;5.13;4.60;;;6.50;99.90;;;;;;4973056;28;20208;-68
2021/10/08 00:33:12;;;;;;;4.87;4.47;;;6.40;99.90;;;;;;4967706;28;20192;-70
2021/10/08 00:35:37;;;;;;;5.03;4.53;;;6.40;99.90;;;;;;4968337;28;20177;-69
2021/10/08 00:38:05;;;;;;;5.60;5.10;;;6.30;99.90;;;;;;4973345;28;20208;-68
2021/10/08 00:40:40;;;;;;;5.60;5.10;;;6.40;99.90;;;;;;4975037;28;20184;-68
2021/10/08 00:43:06;;;;;;;10.73;5.33;;;6.20;99.90;;;;;;4967633;28;20185;-66
2021/10/08 00:45:33;;;;;;;6.40;5.63;;;6.10;99.90;;;;;;4971952;28;20173;-69
2021/10/08 00:48:06;;;;;;;5.47;4.97;;;6.10;99.90;;;;;;4974877;28;20628;-66
2021/10/08 00:50:40;;;;;;;5.13;4.63;;;6.20;99.90;;;;;;4974223;28;20204;-68
2021/10/08 00:53:06;;;;;;;6.33;5.10;;;6.30;99.90;;;;;;4967377;28;20660;-67
2021/10/08 00:55:40;;;;;;;5.50;4.90;;;6.30;99.90;;;;;;4967599;28;20251;-69
2021/10/08 00:58:06;;;;;;;5.40;4.90;;;6.20;99.90;;;;;;4969724;28;20211;-68
2021/10/08 01:00:32;;;;;;;5.43;4.93;;;6.10;99.90;;;;;;4972427;28;20191;-67
2021/10/08 01:02:57;;;;;;;9.90;5.10;;;6.20;99.90;;;;;;4967777;28;20520;-66
2021/10/08 01:05:23;;;;;;;6.20;4.97;;;6.30;99.90;;;;;;4967615;28;20177;-68
2021/10/08 01:07:52;;;;;;;5.20;4.70;;;6.30;99.90;;;;;;4968026;28;20265;-69
2021/10/08 01:10:18;;;;;;;5.63;4.97;;;6.30;99.90;;;;;;4967583;28;20180;-69
2021/10/08 01:12:44;;;;;;;5.63;5.07;;;6.20;99.90;;;;;;4966945;28;20521;-68
2021/10/08 01:15:10;;;;;;;6.77;5.47;;;6.20;99.90;;;;;;4966331;28;20208;-68
2021/10/08 01:17:36;;;;;;;5.90;5.40;;;6.20;99.90;;;;;;4970647;28;20284;-67
2021/10/08 01:20:09;;;;;;;5.43;4.93;;;6.10;99.90;;;;;;4967476;28;20604;-70
2021/10/08 01:22:35;;;;;;;5.87;5.37;;;6.00;99.90;;;;;;4966817;28;20203;-70
2021/10/08 01:25:02;;;;;;;5.77;5.27;;;6.00;99.90;;;;;;4967676;28;20185;-67
2021/10/08 01:27:28;;;;;;;6.00;5.40;;;6.00;99.90;;;;;;4972016;28;20192;-68
2021/10/08 01:29:57;;;;;;;5.73;5.17;;;5.90;99.90;;;;;;4967008;28;20403;-69
2021/10/08 01:32:25;;;;;;;5.97;5.37;;;5.80;99.90;;;;;;4972097;28;20672;-69
2021/10/08 01:34:51;;;;;;;6.20;5.53;;;5.80;99.90;;;;;;4969752;28;20180;-70
2021/10/08 01:37:17;;;;;;;7.30;6.27;;;5.80;99.90;;;;;;4974463;28;20339;-69
2021/10/08 01:39:43;;;;;;;7.50;5.80;;;5.90;99.90;;;;;;4970744;28;20248;-69
2021/10/08 01:42:09;;;;;;;6.40;5.57;;;6.00;99.90;;;;;;4974553;28;20201;-67
2021/10/08 01:44:35;;;;;;;6.13;5.40;;;6.00;99.90;;;;;;4965508;28;20913;-66
2021/10/08 01:47:00;;;;;;;6.33;5.70;;;5.90;99.90;;;;;;4967219;28;20180;-67
2021/10/08 01:49:26;;;;;;;6.57;5.97;;;5.80;99.90;;;;;;4966998;28;20189;-67
2021/10/08 01:51:52;;;;;;;6.67;5.07;;;5.80;99.90;;;;;;4971315;28;20284;-69
2021/10/08 01:54:17;;;;;;;6.67;5.77;;;5.90;99.90;;;;;;4971906;28;20197;-68
2021/10/08 01:56:46;;;;;;;6.30;5.70;;;5.80;99.90;;;;;;4972039;28;20184;-69
2021/10/08 01:59:13;;;;;;;6.63;6.00;;;5.90;99.90;;;;;;4967073;28;20622;-68
2021/10/08 02:01:38;;;;;;;6.10;5.50;;;5.80;99.90;;;;;;4965838;28;20641;-66
2021/10/08 02:04:04;;;;;;;5.80;5.20;;;5.80;99.90;;;;;;4967304;28;20231;-69
2021/10/08 02:06:30;;;;;;;6.07;5.27;;;5.80;99.90;;;;;;4969365;28;20180;-70
2021/10/08 02:08:56;;;;;;;6.37;5.77;;;5.70;99.90;;;;;;4966716;28;20181;-70
2021/10/08 02:11:22;;;;;;;5.83;5.23;;;5.60;99.90;;;;;;4973449;28;20280;-68
2021/10/08 02:13:47;;;;;;;6.73;5.53;;;5.50;99.90;;;;;;4970965;28;20244;-69
2021/10/08 02:16:13;;;;;;;7.83;5.47;;;5.60;99.90;;;;;;4968294;28;20185;-71
2021/10/08 02:18:38;;;;;;;6.33;5.60;;;5.50;99.90;;;;;;4966258;28;20296;-66
2021/10/08 02:21:04;;;;;;;6.43;5.83;;;5.70;99.90;;;;;;4966176;28;20201;-69
2021/10/08 02:23:30;;;;;;;5.90;5.30;;;5.80;99.90;;;;;;4965702;28;20184;-70
2021/10/08 02:25:57;;;;;;;6.17;5.57;;;5.80;99.90;;;;;;4968226;28;20253;-69
2021/10/08 02:28:23;;;;;;;6.23;5.63;;;5.80;99.90;;;;;;4966543;28;20232;-69
2021/10/08 02:30:49;;;;;;;6.90;6.20;;;5.90;99.90;;;;;;4966009;28;20205;-67
2021/10/08 02:33:14;;;;;;;6.43;5.80;;;5.70;99.90;;;;;;4965627;28;20191;-69
2021/10/08 02:35:40;;;;;;;6.23;5.40;;;5.70;99.90;;;;;;4970105;28;20557;-70
2021/10/08 02:38:06;;;;;;;6.37;5.67;;;5.70;99.90;;;;;;4976831;28;20300;-70
2021/10/08 02:40:31;;;;;;;7.23;5.43;;;5.70;99.90;;;;;;4965561;28;20271;-69
2021/10/08 02:42:57;;;;;;;6.27;5.63;;;5.70;99.90;;;;;;4965643;28;20240;-65
2021/10/08 02:45:23;;;;;;;6.83;6.13;;;5.60;99.90;;;;;;4965971;28;20181;-70
2021/10/08 02:47:48;;;;;;;7.30;6.13;;;5.60;99.90;;;;;;4970799;28;20187;-68
2021/10/08 02:50:14;;;;;;;7.17;6.40;;;5.60;99.90;;;;;;4965395;28;20188;-69
2021/10/08 02:52:40;;;;;;;6.77;6.07;;;5.50;99.90;;;;;;4966907;28;20554;-69
2021/10/08 02:55:06;;;;;;;6.43;5.83;;;5.40;99.90;;;;;;4965597;28;20204;-67
2021/10/08 02:57:32;;;;;;;6.13;5.53;;;5.40;99.90;;;;;;4965881;28;20251;-67
2021/10/08 02:59:57;;;;;;;7.87;6.17;;;5.50;99.90;;;;;;4972307;28;20185;-68
2021/10/08 03:02:23;;;;;;;8.90;5.77;;;5.50;99.90;;;;;;4965150;28;20251;-69
2021/10/08 03:04:49;;;;;;;8.27;5.83;;;5.40;99.90;;;;;;4965728;28;20573;-68
2021/10/08 03:07:14;;;;;;;7.10;6.40;;;5.50;99.90;;;;;;4964400;28;20192;-68
2021/10/08 03:09:40;;;;;;;7.10;6.40;;;5.40;99.90;;;;;;4965455;28;20188;-67
2021/10/08 03:12:06;;;;;;;7.57;6.20;;;5.40;99.90;;;;;;4963490;28;20201;-69
2021/10/08 03:14:31;;;;;;;7.40;6.60;;;5.50;99.90;;;;;;4966563;28;20664;-68
2021/10/08 03:16:57;;;;;;;7.70;6.93;;;5.50;99.90;;;;;;4968222;28;20180;-70
2021/10/08 03:19:23;;;;;;;7.40;6.50;;;5.50;99.90;;;;;;4965701;28;20224;-69
2021/10/08 03:21:49;;;;;;;7.37;6.67;;;5.50;99.90;;;;;;4964635;28;20193;-68
2021/10/08 03:24:14;;;;;;;7.57;6.77;;;5.60;99.90;;;;;;4965893;28;20185;-68
2021/10/08 03:26:40;;;;;;;7.27;6.57;;;5.50;99.90;;;;;;4965440;28;20541;-68
2021/10/08 03:29:06;;;;;;;8.47;6.70;;;5.50;99.90;;;;;;4965716;28;20200;-68
2021/10/08 03:31:32;;;;;;;8.40;6.50;;;5.50;99.90;;;;;;4964656;28;20228;-68
2021/10/08 03:33:58;;;;;;;8.43;6.60;;;5.60;99.90;;;;;;4965480;28;20571;-68
2021/10/08 03:36:33;;;;;;;6.73;6.03;;;5.50;99.90;;;;;;4965342;28;20185;-68
2021/10/08 03:38:58;;;;;;;7.47;6.77;;;5.60;99.90;;;;;;4965836;28;20204;-69
2021/10/08 03:41:25;;;;;;;7.13;6.33;;;5.60;99.90;;;;;;4968811;28;20189;-70
2021/10/08 03:43:54;;;;;;;7.60;6.13;;;5.60;99.90;;;;;;4969345;28;20169;-68
2021/10/08 03:46:20;;;;;;;6.90;6.20;;;5.50;99.90;;;;;;4970867;28;20707;-69
2021/10/08 03:51:30;;;;;;;6.57;5.53;;;5.40;99.90;;;;;;4975839;28;20673;-68
2021/10/08 03:53:56;;;;;;;6.70;6.03;;;5.50;99.90;;;;;;4968337;28;20189;-68
2021/10/08 03:56:22;;;;;;;7.60;6.53;;;5.40;99.90;;;;;;4969049;28;20189;-68
2021/10/08 03:58:48;;;;;;;7.33;6.40;;;5.50;99.90;;;;;;4969109;28;20200;-68
2021/10/08 04:01:14;;;;;;;7.23;6.43;;;5.50;99.90;;;;;;4968772;28;20215;-68
2021/10/08 04:03:40;;;;;;;6.27;5.67;;;5.50;99.90;;;;;;4968497;28;20710;-70
2021/10/08 04:06:05;;;;;;;6.87;6.17;;;5.40;99.90;;;;;;4968875;28;20170;-68
2021/10/08 04:08:31;;;;;;;6.73;6.03;;;5.30;99.90;;;;;;4969047;28;20203;-68
2021/10/08 04:10:56;;;;;;;8.27;5.37;;;5.30;99.90;;;;;;4976235;28;20305;-70
2021/10/08 04:13:22;;;;;;;6.30;5.67;;;5.30;99.90;;;;;;4968687;28;20242;-66
2021/10/08 04:15:48;;;;;;;6.53;5.77;;;5.30;99.90;;;;;;4968629;28;20181;-69
2021/10/08 04:18:13;;;;;;;7.40;6.07;;;5.20;99.90;;;;;;4969137;28;20617;-67
2021/10/08 04:20:40;;;;;;;7.07;6.13;;;5.30;99.90;;;;;;4968146;28;20189;-67
2021/10/08 04:23:06;;;;;;;6.50;5.20;;;5.20;99.90;;;;;;4975023;28;20181;-68
2021/10/08 04:25:31;;;;;;;6.53;5.60;;;5.20;99.90;;;;;;4966497;28;20231;-67
2021/10/08 04:27:57;;;;;;;6.13;5.37;;;5.30;99.90;;;;;;4968588;28;20224;-65
2021/10/08 04:30:23;;;;;;;6.97;5.10;;;5.30;99.90;;;;;;4968588;28;20180;-68
2021/10/08 04:32:48;;;;;;;5.97;4.67;;;5.30;99.90;;;;;;4971223;28;20688;-70
2021/10/08 04:35:15;;;;;;;5.60;5.07;;;5.40;99.90;;;;;;4972488;28;20181;-67
2021/10/08 04:37:41;;;;;;;6.57;5.37;;;5.30;99.90;;;;;;4968336;28;20563;-68
2021/10/08 04:40:07;;;;;;;6.53;5.33;;;5.30;99.90;;;;;;4969042;28;20177;-69
2021/10/08 04:42:33;;;;;;;5.93;5.33;;;5.30;99.90;;;;;;4967760;28;20438;-69
2021/10/08 04:44:59;;;;;;;6.33;5.57;;;5.30;99.90;;;;;;4968459;28;20235;-66
2021/10/08 04:47:25;;;;;;;6.37;5.63;;;5.30;99.90;;;;;;4967040;28;20185;-66
2021/10/08 04:49:50;;;;;;;6.70;6.00;;;5.10;99.90;;;;;;4971010;28;20185;-67
2021/10/08 04:52:16;;;;;;;6.77;6.00;;;5.20;99.90;;;;;;4968544;28;20209;-66
2021/10/08 04:54:42;;;;;;;7.53;5.33;;;5.30;99.90;;;;;;4978401;28;20197;-68
2021/10/08 04:57:07;;;;;;;6.70;5.40;;;5.30;99.90;;;;;;4970072;28;20236;-68
2021/10/08 04:59:33;;;;;;;6.97;6.10;;;5.40;99.90;;;;;;4968928;28;20641;-68
2021/10/08 05:01:59;;;;;;;6.27;5.57;;;5.30;99.90;;;;;;4969980;28;20228;-68
2021/10/08 05:04:25;;;;;;;6.80;5.77;;;5.30;99.90;;;;;;4972847;28;20503;-69
2021/10/08 05:06:51;;;;;;;7.67;6.17;;;5.10;99.90;;;;;;4967821;28;20212;-66
2021/10/08 05:09:17;;;;;;;10.10;6.57;;;4.90;99.90;;;;;;4973636;28;20993;-69
2021/10/08 05:11:42;;;;;;;8.00;6.63;;;4.90;99.90;;;;;;4966803;28;20196;-70
2021/10/08 05:14:10;;;;;;;6.40;5.53;;;4.80;99.90;;;;;;4967791;28;20624;-65
2021/10/08 05:16:39;;;;;;;8.30;7.27;;;4.90;99.90;;;;;;4968078;28;20529;-69
2021/10/08 05:19:05;;;;;;;7.60;6.80;;;5.10;99.90;;;;;;4967869;28;20209;-67
2021/10/08 05:21:31;;;;;;;9.63;6.30;;;5.10;99.90;;;;;;4966589;28;20201;-69
2021/10/08 05:23:57;;;;;;;7.17;6.17;;;4.90;99.90;;;;;;4967729;28;20377;-69
2021/10/08 05:26:23;;;;;;;8.60;6.10;;;4.90;99.90;;;;;;4967420;28;20922;-68
2021/10/08 05:28:48;;;;;;;11.37;6.90;;;4.90;99.90;;;;;;4967515;28;20216;-67
2021/10/08 05:31:14;;;;;;;9.20;6.37;;;4.80;99.90;;;;;;4967091;28;20224;-69
2021/10/08 05:33:40;;;;;;;8.33;6.50;;;4.70;99.90;;;;;;4968017;28;20583;-69
2021/10/08 05:36:06;;;;;;;13.83;5.90;;;4.80;99.90;;;;;;4969827;28;20177;-68
2021/10/08 05:38:31;;;;;;;9.70;6.60;;;4.90;99.90;;;;;;4967383;28;20258;-67
2021/10/08 05:40:57;;;;;;;8.47;6.90;;;4.90;99.90;;;;;;4970446;28;20263;-69
2021/10/08 05:43:23;;;;;;;11.77;6.83;;;4.80;99.90;;;;;;4967044;28;20181;-68
2021/10/08 05:45:48;;;;;;;8.87;6.57;;;4.80;99.90;;;;;;4966987;28;20188;-69
2021/10/08 05:48:14;;;;;;;13.83;6.57;;;4.70;99.90;;;;;;4967371;28;20185;-66
2021/10/08 05:50:40;;;;;;;17.93;6.40;;;4.80;99.90;;;;;;4970343;28;20185;-66
2021/10/08 05:53:08;;;;;;;10.27;6.57;;;4.80;99.90;;;;;;4974252;28;20193;-71
2021/10/08 05:55:35;;;;;;;13.07;7.03;;;5.00;99.90;;;;;;4971714;28;20241;-68
2021/10/08 05:58:01;;;;;;;16.40;7.03;;;5.00;99.90;;;;;;4965421;28;20676;-67
2021/10/08 06:00:26;;;;;;;8.70;7.17;;;5.00;99.90;;;;;;4966718;28;20181;-71
2021/10/08 06:02:52;;;;;;;14.13;7.00;;;5.10;99.90;;;;;;4969338;28;20176;-69
2021/10/08 06:05:18;;;;;;;8.70;6.53;;;5.10;99.90;;;;;;4967137;28;20269;-69
2021/10/08 06:07:44;;;;;;;12.43;7.17;;;5.20;99.90;;;;;;4972198;28;20181;-68
2021/10/08 06:10:09;;;;;;;13.80;6.93;;;5.20;99.90;;;;;;4968349;28;20655;-68
2021/10/08 06:12:35;;;;;;;9.57;6.47;;;5.20;99.90;;;;;;4971353;28;20204;-69
2021/10/08 06:15:00;;;;;;;18.13;7.60;;;5.20;99.90;;;;;;4973261;28;20193;-70
2021/10/08 06:17:26;;;;;;;15.97;6.83;;;5.30;99.90;;;;;;4967375;28;20293;-68
2021/10/08 06:19:52;;;;;;;17.83;7.60;;;5.40;99.90;;;;;;4966190;28;20200;-69
2021/10/08 06:22:17;;;;;;;16.00;7.03;;;5.50;99.90;;;;;;4971024;28;20212;-68
2021/10/08 06:24:43;;;;;;;22.07;7.40;;;5.70;99.90;;;;;;4965883;28;20177;-70
2021/10/08 06:27:09;;;;;;;10.87;7.30;;;5.70;99.90;;;;;;4966974;28;20189;-68
2021/10/08 06:29:34;;;;;;;9.17;7.03;;;5.90;99.90;;;;;;4969737;28;20219;-68
2021/10/08 06:32:00;;;;;;;20.97;8.07;;;6.00;99.90;;;;;;4967997;28;20656;-66
2021/10/08 06:34:25;;;;;;;17.40;7.70;;;5.90;99.90;;;;;;4973147;28;20247;-70
2021/10/08 06:36:51;;;;;;;12.60;7.20;;;5.90;99.90;;;;;;4969939;28;20188;-69
2021/10/08 06:39:17;;;;;;;10.90;7.70;;;6.00;99.90;;;;;;4969325;28;20684;-66
2021/10/08 06:41:42;;;;;;;12.17;7.87;;;6.10;99.90;;;;;;4963592;28;20234;-69
2021/10/08 06:44:08;;;;;;;9.83;7.10;;;6.30;99.90;;;;;;4965871;28;20187;-67
2021/10/08 06:46:34;;;;;;;11.30;7.67;;;6.40;99.90;;;;;;4965882;28;20180;-69
2021/10/08 06:48:59;;;;;;;11.83;7.07;;;6.60;99.90;;;;;;4969496;28;20505;-70
2021/10/08 06:51:25;;;;;;;10.73;6.77;;;6.70;99.90;;;;;;4964704;28;20205;-70
2021/10/08 06:53:50;;;;;;;12.77;6.57;;;6.90;99.90;;;;;;4965458;28;20707;-67
2021/10/08 06:56:16;;;;;;;9.93;7.33;;;6.90;99.90;;;;;;4965789;28;20220;-70
2021/10/08 06:58:42;;;;;;;7.20;6.50;;;7.00;99.90;;;;;;4965924;28;20216;-68
2021/10/08 07:01:07;;;;;;;7.70;6.80;;;7.10;99.90;;;;;;4972525;28;20211;-70
2021/10/08 07:03:33;;;;;;;8.80;7.03;;;7.20;99.90;;;;;;4973114;28;20177;-69
2021/10/08 07:05:58;;;;;;;8.83;7.60;;;7.20;99.90;;;;;;4965368;28;20435;-68
2021/10/08 07:08:24;;;;;;;9.80;7.03;;;7.10;99.90;;;;;;4968913;28;20263;-65
2021/10/08 07:10:50;;;;;;;10.67;7.33;;;7.20;99.90;;;;;;4964972;28;20299;-70
2021/10/08 07:13:15;;;;;;;8.97;7.10;;;7.10;99.90;;;;;;4965420;28;20197;-69
2021/10/08 07:15:41;;;;;;;9.60;7.43;;;7.20;99.90;;;;;;4965142;28;20579;-68
2021/10/08 07:18:09;;;;;;;8.10;7.30;;;7.20;99.90;;;;;;4965903;28;20193;-71
2021/10/08 07:20:35;;;;;;;7.13;6.33;;;7.20;99.90;;;;;;4965185;28;20206;-66
2021/10/08 07:23:01;;;;;;;8.93;6.73;;;7.30;99.90;;;;;;4964733;28;20693;-71
2021/10/08 07:25:29;;;;;;;7.30;6.60;;;7.40;99.90;;;;;;4973715;28;20241;-70
2021/10/08 07:27:55;;;;;;;7.63;6.80;;;7.50;99.90;;;;;;4968924;28;20185;-67
2021/10/08 07:30:21;;;;;;;6.90;6.20;;;7.70;99.90;;;;;;4971601;28;20192;-70
2021/10/08 07:32:47;;;;;;;7.60;6.47;;;8.00;99.90;;;;;;4966412;28;20224;-67
2021/10/08 07:35:14;;;;;;;10.37;6.93;;;8.20;99.90;;;;;;4965382;28;20279;-69
2021/10/08 07:37:40;;;;;;;6.97;6.27;;;8.50;99.90;;;;;;4965204;28;20205;-70
2021/10/08 07:40:07;;;;;;;6.80;6.10;;;8.80;99.90;;;;;;4964969;28;20248;-68
2021/10/08 07:42:35;;;;;;;8.87;6.27;;;9.00;99.90;;;;;;4965306;28;20239;-68
2021/10/08 07:45:01;;;;;;;5.93;5.33;;;9.10;99.90;;;;;;4973789;28;20596;-67
2021/10/08 07:47:27;;;;;;;5.73;5.23;;;9.30;99.90;;;;;;4965578;28;20228;-70
2021/10/08 07:49:52;;;;;;;5.47;4.97;;;9.40;99.90;;;;;;4967882;28;20888;-66
2021/10/08 07:52:18;;;;;;;6.63;5.93;;;9.40;99.90;;;;;;4967735;28;20631;-68
2021/10/08 07:54:44;;;;;;;5.60;5.10;;;9.50;99.90;;;;;;4969423;28;20184;-69
2021/10/08 07:57:09;;;;;;;6.50;5.77;;;9.60;99.90;;;;;;4967245;28;20185;-66
2021/10/08 07:59:36;;;;;;;6.13;5.53;;;9.70;99.90;;;;;;4970331;28;20177;-69
2021/10/08 08:02:01;;;;;;;5.63;5.03;;;10.00;99.90;;;;;;4969886;28;20263;-67
2021/10/08 08:04:27;;;;;;;6.07;5.43;;;10.20;99.90;;;;;;4972030;28;20173;-67
2021/10/08 08:06:52;;;;;;;5.63;5.03;;;10.20;99.90;;;;;;4966121;28;20181;-69
2021/10/08 08:09:18;;;;;;;5.67;5.17;;;10.50;99.90;;;;;;4971548;28;20180;-67
2021/10/08 08:11:44;;;;;;;7.83;5.80;;;10.60;99.90;;;;;;4964232;28;20208;-69
2021/10/08 08:14:09;;;;;;;5.93;5.32;;;10.70;99.90;;;;;;4969078;28;20181;-67
2021/10/08 08:16:35;;;;;;;6.70;5.55;;;10.60;99.90;;;;;;4969880;28;20511;-70
2021/10/08 08:19:01;;;;;;;6.30;5.70;;;10.60;99.90;;;;;;4964983;28;20312;-66
2021/10/08 08:21:27;;;;;;;6.05;5.45;;;10.70;99.90;;;;;;4966334;28;20244;-69
2021/10/08 08:23:53;;;;;;;6.23;5.63;;;10.80;99.90;;;;;;4965840;28;20262;-66
2021/10/08 08:26:18;;;;;;;6.95;6.25;;;10.90;99.90;;;;;;4975576;28;20446;-71
2021/10/08 08:28:44;;;;;;;6.80;6.20;;;11.00;99.90;;;;;;4968894;28;20181;-67
2021/10/08 08:31:10;;;;;;;7.03;6.32;;;11.10;99.90;;;;;;4968076;28;20617;-68
2021/10/08 08:33:36;;;;;;;6.85;6.18;;;11.30;99.90;;;;;;4968194;28;20184;-67
2021/10/08 08:36:03;;;;;;;7.10;6.25;;;11.60;99.90;;;;;;4967992;28;20181;-69
2021/10/08 08:38:28;;;;;;;9.13;7.07;;;11.60;99.90;;;;;;4968430;28;20221;-67
2021/10/08 08:40:54;;;;;;;7.00;6.32;;;11.80;99.90;;;;;;4968311;28;20279;-68
2021/10/08 08:43:19;;;;;;;7.53;6.00;;;11.90;99.90;;;;;;4970013;28;20271;-68
2021/10/08 08:45:45;;;;;;;6.70;6.00;;;12.00;99.90;;;;;;4972904;28;20177;-67
2021/10/08 08:48:12;;;;;;;7.40;6.35;;;12.10;99.90;;;;;;4972679;28;20622;-66
2021/10/08 08:50:44;;;;;;;7.30;6.32;;;12.10;99.90;;;;;;4969993;28;20275;-67
2021/10/08 08:53:10;;;;;;;8.18;7.07;;;12.20;99.90;;;;;;4973227;28;20189;-69
2021/10/08 08:55:36;;;;;;;8.48;7.25;;;12.30;99.90;;;;;;4968121;28;20236;-71
2021/10/08 08:58:02;;;;;;;7.97;7.18;;;12.40;99.90;;;;;;4976102;28;20200;-67
2021/10/08 09:00:28;;;;;;;8.70;7.40;;;12.20;99.90;;;;;;4973869;28;20204;-70
2021/10/08 09:03:03;;;;;;;8.98;7.80;;;12.10;99.90;;;;;;4967117;28;20502;-69
2021/10/08 09:05:31;;;;;;;7.82;7.00;;;12.20;99.90;;;;;;4978841;28;20563;-69
2021/10/08 09:08:02;;;;;;;8.18;7.38;;;12.20;99.90;;;;;;4967955;28;20529;-69
2021/10/08 09:10:29;;;;;;;8.15;7.32;;;12.40;99.90;;;;;;4967372;28;20210;-67
2021/10/08 09:12:56;;;;;;;10.20;7.72;;;12.50;99.90;;;;;;4973793;28;20240;-67
2021/10/08 09:15:26;;;;;;;9.45;8.38;;;12.80;99.90;;;;;;4969854;28;20189;-70
2021/10/08 09:18:12;;;;;;;8.60;7.70;;;13.10;99.90;;;;;;4972877;28;20219;-67
2021/10/08 09:20:39;;;;;;;8.75;7.80;;;13.20;99.90;;;;;;4969415;28;20861;-70
2021/10/08 09:23:06;;;;;;;9.52;8.10;;;13.40;99.90;;;;;;4973298;28;20191;-67
2021/10/08 09:25:38;;;;;;;9.55;8.52;;;13.30;99.90;;;;;;4967218;28;20185;-67
2021/10/08 09:28:09;;;;;;;8.60;7.60;;;13.20;99.90;;;;;;4972777;28;20652;-70
2021/10/08 09:30:39;;;;;;;10.40;8.60;;;13.30;99.90;;;;;;4974060;28;20637;-69
2021/10/08 09:33:10;;;;;;;12.48;7.85;;;13.30;99.90;;;;;;4967070;28;20195;-69
2021/10/08 09:35:36;;;;;;;8.93;8.02;;;13.50;99.90;;;;;;4966951;28;20671;-68
2021/10/08 09:38:07;;;;;;;10.85;8.43;;;13.70;99.90;;;;;;4971345;28;20227;-69
2021/10/08 09:40:38;;;;;;;8.65;7.70;;;13.90;99.90;;;;;;4966818;28;20184;-69
2021/10/08 09:43:07;;;;;;;10.35;7.95;;;14.20;99.90;;;;;;4967025;28;20177;-67
2021/10/08 09:45:43;;;;;;;10.82;8.00;;;14.40;99.90;;;;;;4971663;28;20228;-70
2021/10/08 09:48:10;;;;;;;8.55;7.57;;;14.50;99.90;;;;;;4967274;28;20176;-68
2021/10/08 09:50:37;;;;;;;11.77;8.27;;;14.70;99.90;;;;;;4971462;28;20595;-67
2021/10/08 09:53:14;;;;;;;9.75;7.90;;;14.70;99.90;;;;;;4967045;28;20181;-68
2021/10/08 09:55:41;;;;;;;10.65;8.50;;;14.80;99.90;;;;;;4971708;28;20959;-67
2021/10/08 09:58:07;;;;;;;9.57;7.53;;;15.00;99.90;;;;;;4967090;28;20204;-67
2021/10/08 10:01:19;;;;;;;11.63;9.13;;;15.20;99.90;;;;;;4966643;28;20184;-66
2021/10/08 10:03:51;;;;;;;10.30;8.85;;;15.00;99.90;;;;;;4972273;28;20228;-68
2021/10/08 10:06:16;;;;;;;11.63;9.48;;;14.80;99.90;;;;;;4974385;28;20176;-68
2021/10/08 10:08:42;;;;;;;13.48;8.98;;;14.90;99.90;;;;;;4969732;28;20260;-68
2021/10/08 10:11:08;;;;;;;11.68;10.32;;;15.10;99.90;;;;;;4966434;28;20263;-68
2021/10/08 10:13:36;;;;;;;13.05;10.60;;;15.40;99.90;;;;;;4967150;28;20542;-69
2021/10/08 10:16:02;;;;;;;12.98;10.07;;;15.60;99.90;;;;;;4973578;28;20200;-69
2021/10/08 10:18:29;;;;;;;13.95;10.68;;;15.80;99.90;;;;;;4975022;28;20598;-71
2021/10/08 10:20:54;;;;;;;11.88;10.13;;;16.10;99.90;;;;;;4966627;28;20201;-67
2021/10/08 10:23:23;;;;;;;13.77;11.10;;;16.20;99.90;;;;;;4966541;28;20431;-68
2021/10/08 10:25:50;;;;;;;13.35;10.57;;;16.10;99.90;;;;;;4969266;28;20164;-70
2021/10/08 10:28:16;;;;;;;15.13;11.48;;;16.30;99.90;;;;;;4974884;28;20192;-68
2021/10/08 10:30:45;;;;;;;13.50;11.05;;;16.50;99.90;;;;;;4969935;28;20184;-70
2021/10/08 10:33:11;;;;;;;15.90;12.10;;;16.70;99.90;;;;;;4971413;28;20192;-71
2021/10/08 10:35:39;;;;;;;17.77;13.35;;;16.70;99.90;;;;;;4966358;28;20185;-67
2021/10/08 10:38:25;;;;;;;15.70;12.50;;;16.80;99.90;;;;;;4974224;28;20208;-69
2021/10/08 10:41:08;;;;;;;17.42;13.63;;;17.00;99.90;;;;;;4970088;28;20619;-70
2021/10/08 10:43:40;;;;;;;15.00;12.35;;;17.10;99.90;;;;;;4965729;28;20231;-70
2021/10/08 10:51:55;;;;;;;16.73;12.48;;;17.10;99.90;;;;;;4965048;28;20208;-70
2021/10/08 10:54:41;;;;;;;16.08;12.77;;;17.20;99.90;;;;;;4968843;28;20643;-70
2021/10/08 10:57:09;;;;;;;17.95;13.07;;;17.40;99.90;;;;;;4972101;28;20177;-70
2021/10/08 10:59:39;;;;;;;16.58;13.13;;;17.40;99.90;;;;;;4972574;28;20307;-68
2021/10/08 11:02:08;;;;;;;17.65;12.15;;;17.20;99.90;;;;;;4964644;28;20284;-68
2021/10/08 11:04:37;;;;;;;13.10;11.30;;;17.30;99.90;;;;;;4966067;28;20949;-67
2021/10/08 11:07:03;;;;;;;13.65;9.48;;;17.30;99.90;;;;;;4971060;28;20180;-69
2021/10/08 11:09:29;;;;;;;12.77;9.50;;;17.00;99.90;;;;;;4965980;28;20633;-70
2021/10/08 11:12:42;;;;;;;11.40;8.30;;;17.10;99.90;;;;;;4964557;28;20211;-70
2021/10/08 11:15:19;;;;;;;11.63;8.55;;;17.10;99.90;;;;;;4966181;28;20256;-67
2021/10/08 11:17:55;;;;;;;12.05;8.85;;;17.10;99.90;;;;;;4969478;28;20541;-70
2021/10/08 11:20:32;;;;;;;11.00;7.88;;;17.10;99.90;;;;;;4965796;28;20183;-69
2021/10/08 11:23:28;;;;;;;9.93;8.52;;;17.10;99.90;;;;;;4967655;28;20625;-67
2021/10/08 11:26:00;;;;;;;14.07;9.23;;;17.10;99.90;;;;;;4965129;28;20224;-69
2021/10/08 11:28:35;;;;;;;10.52;8.63;;;17.00;99.90;;;;;;4971743;28;20351;-68
2021/10/08 11:31:03;;;;;;;11.02;8.27;;;16.90;99.90;;;;;;4961622;28;20302;-70
2021/10/08 11:33:33;;;;;;;11.25;8.60;;;16.90;99.90;;;;;;4965494;28;20552;-68
2021/10/08 11:35:58;;;;;;;10.77;8.75;;;17.00;99.90;;;;;;4964915;28;20188;-70
2021/10/08 11:38:24;;;;;;;10.57;8.30;;;17.10;99.90;;;;;;4966238;28;20589;-70
2021/10/08 11:40:50;;;;;;;9.88;7.90;;;17.20;99.90;;;;;;4964539;28;20197;-70
2021/10/08 11:43:35;;;;;;;10.10;8.02;;;17.10;99.90;;;;;;4964446;28;20185;-68
2021/10/08 11:46:16;;;;;;;10.50;7.43;;;17.20;99.90;;;;;;4974817;28;20169;-68
2021/10/08 11:48:54;;;;;;;10.65;7.00;;;17.20;99.90;;;;;;4967933;28;20185;-70
2021/10/08 11:51:22;;;;;;;8.90;7.20;;;17.10;99.90;;;;;;4963045;28;20199;-71
2021/10/08 11:53:52;;;;;;;10.07;7.18;;;17.00;99.90;;;;;;4966910;28;20927;-76
2021/10/08 11:56:29;;;;;;;9.00;6.70;;;17.00;99.90;;;;;;4975824;28;20275;-76
2021/10/08 11:59:06;;;;;;;8.75;6.20;;;17.00;99.90;;;;;;4971643;28;20291;-75
2021/10/08 12:01:33;;;;;;;9.20;6.85;;;17.00;99.90;;;;;;4976780;28;20216;-77
2021/10/08 12:03:59;;;;;;;9.63;6.60;;;17.20;99.90;;;;;;4979203;28;20167;-73
2021/10/08 12:06:27;;;;;;;9.45;7.13;;;17.30;99.90;;;;;;4979276;28;20181;-75
2021/10/08 12:08:55;;;;;;;8.77;7.45;;;17.30;99.90;;;;;;4974167;28;20249;-74
2021/10/08 12:11:21;;;;;;;8.02;6.63;;;17.20;99.90;;;;;;4973152;28;20657;-75
2021/10/08 12:13:58;;;;;;;9.15;6.90;;;17.10;99.90;;;;;;4973342;28;20212;-76
2021/10/08 12:16:42;;;;;;;9.95;7.38;;;17.10;99.90;;;;;;4977748;28;20171;-75
2021/10/08 12:19:09;;;;;;;8.95;7.13;;;17.10;99.90;;;;;;4976717;28;20197;-75
2021/10/08 12:21:39;;;;;;;11.07;9.25;;;16.80;99.90;;;;;;4977752;28;20224;-75
2021/10/08 12:24:06;;;;;;;10.68;8.63;;;16.80;99.90;;;;;;4979362;28;20177;-75
2021/10/08 12:26:34;;;;;;;11.65;7.63;;;16.80;99.90;;;;;;4976958;28;20171;-75
2021/10/08 12:29:05;;;;;;;9.68;8.15;;;16.50;99.90;;;;;;4981585;28;20649;-74
2021/10/08 12:31:50;;;;;;;10.50;8.13;;;16.60;99.90;;;;;;4978039;28;20329;-77
2021/10/08 12:34:53;;;;;;;9.77;8.10;;;16.50;99.90;;;;;;4977760;28;20250;-76
2021/10/08 12:37:28;;;;;;;11.23;7.65;;;16.50;99.90;;;;;;4937061;29;20520;-76
2021/10/08 12:39:59;;;;;;;10.68;7.60;;;16.50;99.90;;;;;;4968544;28;20192;-78
2021/10/08 12:42:27;;;;;;;13.07;8.75;;;16.40;99.90;;;;;;4977878;28;20211;-78
2021/10/08 12:44:59;;;;;;;10.82;7.82;;;16.40;99.90;;;;;;4979246;28;20269;-75
2021/10/08 12:47:36;;;;;;;9.88;7.28;;;16.50;99.90;;;;;;4979347;28;20260;-75
2021/10/08 12:50:16;;;;;;;10.30;8.07;;;16.40;99.90;;;;;;4977941;28;20288;-78
2021/10/08 12:52:43;;;;;;;9.63;7.80;;;16.50;99.90;;;;;;4978834;28;20204;-77
2021/10/08 12:55:13;;;;;;;9.77;6.97;;;16.50;99.90;;;;;;4978774;28;20176;-75
2021/10/08 12:58:01;;;;;;;10.40;8.15;;;16.60;99.90;;;;;;4978886;28;20294;-77
2021/10/08 13:00:44;;;;;;;13.52;8.23;;;16.60;99.90;;;;;;4985360;28;20589;-77
2021/10/08 13:03:34;;;;;;;10.05;7.63;;;16.70;99.90;;;;;;4977341;28;21208;-78